sensor_id;sensor_type;location;lat;lon;timestamp;P1;durP1;ratioP1;P2;durP2;ratioP2
4616;SDS011;2321;42.704;23.384;2022-07-29T00:00:06;9.00;;;4.90;;
4616;SDS011;2321;42.704;23.384;2022-07-29T00:02:34;14.20;;;6.70;;
4616;SDS011;2321;42.704;23.384;2022-07-29T00:05:02;5.77;;;4.07;;
4616;SDS011;2321;42.704;23.384;2022-07-29T00:07:30;10.33;;;4.53;;
4616;SDS011;2321;42.704;23.384;2022-07-29T00:09:57;4.73;;;4.13;;
4616;SDS011;2321;42.704;23.384;2022-07-29T00:12:24;11.30;;;5.07;;
4616;SDS011;2321;42.704;23.384;2022-07-29T00:14:52;12.80;;;5.33;;
4616;SDS011;2321;42.704;23.384;2022-07-29T00:17:19;6.33;;;5.07;;
4616;SDS011;2321;42.704;23.384;2022-07-29T00:19:46;7.63;;;5.27;;
4616;SDS011;2321;42.704;23.384;2022-07-29T00:22:13;12.17;;;5.50;;
4616;SDS011;2321;42.704;23.384;2022-07-29T00:24:42;10.13;;;6.50;;
4616;SDS011;2321;42.704;23.384;2022-07-29T00:27:09;7.70;;;5.07;;
4616;SDS011;2321;42.704;23.384;2022-07-29T00:29:36;11.00;;;6.87;;
4616;SDS011;2321;42.704;23.384;2022-07-29T00:32:03;6.60;;;4.27;;
4616;SDS011;2321;42.704;23.384;2022-07-29T00:34:30;7.03;;;4.53;;
4616;SDS011;2321;42.704;23.384;2022-07-29T00:37:14;11.53;;;5.27;;
4616;SDS011;2321;42.704;23.384;2022-07-29T00:39:43;6.60;;;4.83;;
4616;SDS011;2321;42.704;23.384;2022-07-29T00:42:10;11.43;;;6.40;;
4616;SDS011;2321;42.704;23.384;2022-07-29T00:44:37;7.10;;;4.63;;
4616;SDS011;2321;42.704;23.384;2022-07-29T00:47:05;6.40;;;5.17;;
4616;SDS011;2321;42.704;23.384;2022-07-29T00:49:32;6.90;;;5.10;;
4616;SDS011;2321;42.704;23.384;2022-07-29T00:52:00;9.93;;;5.20;;
4616;SDS011;2321;42.704;23.384;2022-07-29T00:54:27;9.07;;;5.70;;
4616;SDS011;2321;42.704;23.384;2022-07-29T00:56:57;10.93;;;5.07;;
4616;SDS011;2321;42.704;23.384;2022-07-29T00:59:24;6.43;;;5.07;;
4616;SDS011;2321;42.704;23.384;2022-07-29T01:01:52;10.97;;;7.37;;
4616;SDS011;2321;42.704;23.384;2022-07-29T01:04:19;11.10;;;6.60;;
4616;SDS011;2321;42.704;23.384;2022-07-29T01:06:46;13.73;;;5.70;;
4616;SDS011;2321;42.704;23.384;2022-07-29T01:09:14;9.87;;;6.20;;
4616;SDS011;2321;42.704;23.384;2022-07-29T01:11:42;8.27;;;6.50;;
4616;SDS011;2321;42.704;23.384;2022-07-29T01:14:12;8.60;;;6.33;;
4616;SDS011;2321;42.704;23.384;2022-07-29T01:16:42;17.43;;;6.50;;
4616;SDS011;2321;42.704;23.384;2022-07-29T01:19:23;7.93;;;5.93;;
4616;SDS011;2321;42.704;23.384;2022-07-29T01:22:15;8.70;;;6.10;;
4616;SDS011;2321;42.704;23.384;2022-07-29T01:24:57;9.83;;;6.07;;
4616;SDS011;2321;42.704;23.384;2022-07-29T01:27:41;7.93;;;6.07;;
4616;SDS011;2321;42.704;23.384;2022-07-29T01:30:19;11.30;;;6.23;;
4616;SDS011;2321;42.704;23.384;2022-07-29T01:32:49;6.43;;;5.80;;
4616;SDS011;2321;42.704;23.384;2022-07-29T01:35:21;10.13;;;6.83;;
4616;SDS011;2321;42.704;23.384;2022-07-29T01:37:54;8.67;;;6.63;;
4616;SDS011;2321;42.704;23.384;2022-07-29T01:40:25;9.33;;;5.77;;
4616;SDS011;2321;42.704;23.384;2022-07-29T01:42:58;11.03;;;6.27;;
4616;SDS011;2321;42.704;23.384;2022-07-29T01:45:33;15.97;;;7.70;;
4616;SDS011;2321;42.704;23.384;2022-07-29T01:48:09;8.20;;;5.87;;
4616;SDS011;2321;42.704;23.384;2022-07-29T01:50:40;11.73;;;7.80;;
4616;SDS011;2321;42.704;23.384;2022-07-29T01:53:12;11.40;;;6.13;;
4616;SDS011;2321;42.704;23.384;2022-07-29T01:55:47;7.07;;;5.37;;
4616;SDS011;2321;42.704;23.384;2022-07-29T01:58:16;8.87;;;5.70;;
4616;SDS011;2321;42.704;23.384;2022-07-29T02:00:46;7.80;;;6.20;;
4616;SDS011;2321;42.704;23.384;2022-07-29T02:03:16;7.70;;;5.40;;
4616;SDS011;2321;42.704;23.384;2022-07-29T02:05:45;9.10;;;5.40;;
4616;SDS011;2321;42.704;23.384;2022-07-29T02:08:14;11.67;;;6.00;;
4616;SDS011;2321;42.704;23.384;2022-07-29T02:10:43;14.77;;;6.07;;
4616;SDS011;2321;42.704;23.384;2022-07-29T02:13:12;9.50;;;6.67;;
4616;SDS011;2321;42.704;23.384;2022-07-29T02:15:42;8.67;;;6.10;;
4616;SDS011;2321;42.704;23.384;2022-07-29T02:18:12;11.93;;;6.93;;
4616;SDS011;2321;42.704;23.384;2022-07-29T02:20:43;15.90;;;6.07;;
4616;SDS011;2321;42.704;23.384;2022-07-29T02:23:14;12.23;;;6.37;;
4616;SDS011;2321;42.704;23.384;2022-07-29T02:25:44;14.90;;;7.17;;
4616;SDS011;2321;42.704;23.384;2022-07-29T02:28:15;8.83;;;6.10;;
4616;SDS011;2321;42.704;23.384;2022-07-29T02:30:44;13.53;;;7.40;;
4616;SDS011;2321;42.704;23.384;2022-07-29T02:33:14;7.90;;;6.17;;
4616;SDS011;2321;42.704;23.384;2022-07-29T02:35:42;8.70;;;7.00;;
4616;SDS011;2321;42.704;23.384;2022-07-29T02:38:13;8.50;;;6.27;;
4616;SDS011;2321;42.704;23.384;2022-07-29T02:41:00;7.20;;;6.30;;
4616;SDS011;2321;42.704;23.384;2022-07-29T02:43:29;23.53;;;7.13;;
4616;SDS011;2321;42.704;23.384;2022-07-29T02:45:58;9.33;;;6.50;;
4616;SDS011;2321;42.704;23.384;2022-07-29T02:48:32;27.30;;;6.93;;
4616;SDS011;2321;42.704;23.384;2022-07-29T02:51:05;9.07;;;6.70;;
4616;SDS011;2321;42.704;23.384;2022-07-29T02:53:38;9.47;;;6.83;;
4616;SDS011;2321;42.704;23.384;2022-07-29T02:56:10;6.87;;;5.80;;
4616;SDS011;2321;42.704;23.384;2022-07-29T02:58:41;9.50;;;5.17;;
4616;SDS011;2321;42.704;23.384;2022-07-29T03:01:14;9.50;;;5.67;;
4616;SDS011;2321;42.704;23.384;2022-07-29T03:03:48;14.17;;;4.87;;
4616;SDS011;2321;42.704;23.384;2022-07-29T03:06:17;6.87;;;6.07;;
4616;SDS011;2321;42.704;23.384;2022-07-29T03:08:45;7.43;;;5.17;;
4616;SDS011;2321;42.704;23.384;2022-07-29T03:11:13;11.10;;;5.50;;
4616;SDS011;2321;42.704;23.384;2022-07-29T03:13:42;8.37;;;5.60;;
4616;SDS011;2321;42.704;23.384;2022-07-29T03:16:10;7.20;;;5.73;;
4616;SDS011;2321;42.704;23.384;2022-07-29T03:18:39;8.73;;;6.23;;
4616;SDS011;2321;42.704;23.384;2022-07-29T03:21:08;6.67;;;4.80;;
4616;SDS011;2321;42.704;23.384;2022-07-29T03:23:35;11.33;;;6.40;;
4616;SDS011;2321;42.704;23.384;2022-07-29T03:26:02;9.13;;;5.97;;
4616;SDS011;2321;42.704;23.384;2022-07-29T03:28:29;10.60;;;7.10;;
4616;SDS011;2321;42.704;23.384;2022-07-29T03:30:56;7.30;;;6.00;;
4616;SDS011;2321;42.704;23.384;2022-07-29T03:33:23;7.20;;;5.80;;
4616;SDS011;2321;42.704;23.384;2022-07-29T03:35:50;9.70;;;5.80;;
4616;SDS011;2321;42.704;23.384;2022-07-29T03:38:18;7.57;;;5.30;;
4616;SDS011;2321;42.704;23.384;2022-07-29T03:40:48;9.43;;;6.70;;
4616;SDS011;2321;42.704;23.384;2022-07-29T03:43:19;15.90;;;6.40;;
4616;SDS011;2321;42.704;23.384;2022-07-29T03:45:49;10.97;;;6.30;;
4616;SDS011;2321;42.704;23.384;2022-07-29T03:48:19;10.30;;;6.00;;
4616;SDS011;2321;42.704;23.384;2022-07-29T03:50:48;10.60;;;5.60;;
4616;SDS011;2321;42.704;23.384;2022-07-29T03:53:17;10.10;;;6.10;;
4616;SDS011;2321;42.704;23.384;2022-07-29T03:55:45;14.80;;;5.77;;
4616;SDS011;2321;42.704;23.384;2022-07-29T03:58:16;8.33;;;5.67;;
4616;SDS011;2321;42.704;23.384;2022-07-29T04:00:45;9.47;;;6.13;;
4616;SDS011;2321;42.704;23.384;2022-07-29T04:03:13;9.00;;;5.20;;
4616;SDS011;2321;42.704;23.384;2022-07-29T04:05:40;9.17;;;6.60;;
4616;SDS011;2321;42.704;23.384;2022-07-29T04:08:07;6.90;;;5.90;;
4616;SDS011;2321;42.704;23.384;2022-07-29T04:10:36;9.27;;;6.60;;
4616;SDS011;2321;42.704;23.384;2022-07-29T04:13:04;10.73;;;5.77;;
4616;SDS011;2321;42.704;23.384;2022-07-29T04:15:31;8.27;;;5.77;;
4616;SDS011;2321;42.704;23.384;2022-07-29T04:17:58;15.90;;;6.17;;
4616;SDS011;2321;42.704;23.384;2022-07-29T04:20:25;9.27;;;7.00;;
4616;SDS011;2321;42.704;23.384;2022-07-29T04:22:52;6.90;;;5.63;;
4616;SDS011;2321;42.704;23.384;2022-07-29T04:25:19;7.30;;;6.00;;
4616;SDS011;2321;42.704;23.384;2022-07-29T04:27:47;5.50;;;5.00;;
4616;SDS011;2321;42.704;23.384;2022-07-29T04:30:26;9.97;;;6.07;;
4616;SDS011;2321;42.704;23.384;2022-07-29T04:32:53;9.70;;;5.53;;
4616;SDS011;2321;42.704;23.384;2022-07-29T04:35:20;6.33;;;5.73;;
4616;SDS011;2321;42.704;23.384;2022-07-29T04:37:47;11.40;;;6.27;;
4616;SDS011;2321;42.704;23.384;2022-07-29T04:40:14;8.10;;;5.87;;
4616;SDS011;2321;42.704;23.384;2022-07-29T04:42:42;7.70;;;6.00;;
4616;SDS011;2321;42.704;23.384;2022-07-29T04:45:10;6.80;;;5.50;;
4616;SDS011;2321;42.704;23.384;2022-07-29T04:47:37;11.60;;;5.97;;
4616;SDS011;2321;42.704;23.384;2022-07-29T04:50:05;7.87;;;5.90;;
4616;SDS011;2321;42.704;23.384;2022-07-29T04:52:32;14.10;;;7.40;;
4616;SDS011;2321;42.704;23.384;2022-07-29T04:55:00;9.27;;;5.40;;
4616;SDS011;2321;42.704;23.384;2022-07-29T04:57:27;6.03;;;4.90;;
4616;SDS011;2321;42.704;23.384;2022-07-29T04:59:54;7.77;;;6.30;;
4616;SDS011;2321;42.704;23.384;2022-07-29T05:02:23;5.90;;;4.97;;
4616;SDS011;2321;42.704;23.384;2022-07-29T05:04:50;7.87;;;5.47;;
4616;SDS011;2321;42.704;23.384;2022-07-29T05:07:17;6.57;;;5.27;;
4616;SDS011;2321;42.704;23.384;2022-07-29T05:09:44;8.97;;;5.60;;
4616;SDS011;2321;42.704;23.384;2022-07-29T05:12:11;5.33;;;4.83;;
4616;SDS011;2321;42.704;23.384;2022-07-29T05:14:38;7.73;;;4.83;;
4616;SDS011;2321;42.704;23.384;2022-07-29T05:17:05;9.57;;;5.27;;
4616;SDS011;2321;42.704;23.384;2022-07-29T05:19:33;7.37;;;5.50;;
4616;SDS011;2321;42.704;23.384;2022-07-29T05:22:00;5.70;;;5.17;;
4616;SDS011;2321;42.704;23.384;2022-07-29T05:24:27;6.63;;;5.10;;
4616;SDS011;2321;42.704;23.384;2022-07-29T05:26:54;6.07;;;5.50;;
4616;SDS011;2321;42.704;23.384;2022-07-29T05:29:21;8.83;;;6.23;;
4616;SDS011;2321;42.704;23.384;2022-07-29T05:31:48;7.00;;;5.77;;
4616;SDS011;2321;42.704;23.384;2022-07-29T05:34:16;6.30;;;5.47;;
4616;SDS011;2321;42.704;23.384;2022-07-29T05:36:45;11.70;;;5.90;;
4616;SDS011;2321;42.704;23.384;2022-07-29T05:39:12;5.90;;;5.30;;
4616;SDS011;2321;42.704;23.384;2022-07-29T05:41:39;6.10;;;5.10;;
4616;SDS011;2321;42.704;23.384;2022-07-29T05:44:06;4.73;;;4.33;;
4616;SDS011;2321;42.704;23.384;2022-07-29T05:46:33;4.93;;;3.87;;
4616;SDS011;2321;42.704;23.384;2022-07-29T05:49:00;10.63;;;3.87;;
4616;SDS011;2321;42.704;23.384;2022-07-29T05:51:28;4.20;;;3.77;;
4616;SDS011;2321;42.704;23.384;2022-07-29T05:53:57;4.33;;;3.93;;
4616;SDS011;2321;42.704;23.384;2022-07-29T05:56:24;5.17;;;4.67;;
4616;SDS011;2321;42.704;23.384;2022-07-29T05:58:51;3.90;;;3.50;;
4616;SDS011;2321;42.704;23.384;2022-07-29T06:01:19;3.97;;;3.60;;
4616;SDS011;2321;42.704;23.384;2022-07-29T06:03:46;4.43;;;3.40;;
4616;SDS011;2321;42.704;23.384;2022-07-29T06:06:13;3.67;;;3.37;;
4616;SDS011;2321;42.704;23.384;2022-07-29T06:08:40;4.50;;;4.10;;
4616;SDS011;2321;42.704;23.384;2022-07-29T06:11:09;3.97;;;3.63;;
4616;SDS011;2321;42.704;23.384;2022-07-29T06:13:36;3.60;;;3.40;;
4616;SDS011;2321;42.704;23.384;2022-07-29T06:16:03;3.03;;;2.83;;
4616;SDS011;2321;42.704;23.384;2022-07-29T06:18:30;3.20;;;2.97;;
4616;SDS011;2321;42.704;23.384;2022-07-29T06:20:57;3.80;;;3.50;;
4616;SDS011;2321;42.704;23.384;2022-07-29T06:23:24;3.87;;;3.50;;
4616;SDS011;2321;42.704;23.384;2022-07-29T06:25:51;3.17;;;2.97;;
4616;SDS011;2321;42.704;23.384;2022-07-29T06:28:20;3.70;;;3.40;;
4616;SDS011;2321;42.704;23.384;2022-07-29T06:30:47;3.47;;;2.90;;
4616;SDS011;2321;42.704;23.384;2022-07-29T06:33:17;2.13;;;2.13;;
4616;SDS011;2321;42.704;23.384;2022-07-29T06:35:45;2.67;;;2.60;;
4616;SDS011;2321;42.704;23.384;2022-07-29T06:38:12;3.17;;;2.87;;
4616;SDS011;2321;42.704;23.384;2022-07-29T06:40:42;3.20;;;2.90;;
4616;SDS011;2321;42.704;23.384;2022-07-29T06:43:33;2.70;;;2.60;;
4616;SDS011;2321;42.704;23.384;2022-07-29T06:46:03;2.30;;;2.20;;
4616;SDS011;2321;42.704;23.384;2022-07-29T06:48:31;2.47;;;2.37;;
4616;SDS011;2321;42.704;23.384;2022-07-29T06:50:59;2.13;;;2.03;;
4616;SDS011;2321;42.704;23.384;2022-07-29T06:53:27;3.70;;;2.80;;
4616;SDS011;2321;42.704;23.384;2022-07-29T06:55:54;5.23;;;2.50;;
4616;SDS011;2321;42.704;23.384;2022-07-29T06:58:23;2.97;;;2.80;;
4616;SDS011;2321;42.704;23.384;2022-07-29T07:00:52;2.50;;;2.40;;
4616;SDS011;2321;42.704;23.384;2022-07-29T07:03:19;2.50;;;2.40;;
4616;SDS011;2321;42.704;23.384;2022-07-29T07:05:46;2.00;;;1.90;;
4616;SDS011;2321;42.704;23.384;2022-07-29T07:08:13;2.23;;;2.13;;
4616;SDS011;2321;42.704;23.384;2022-07-29T07:10:41;2.40;;;2.20;;
4616;SDS011;2321;42.704;23.384;2022-07-29T07:13:09;2.13;;;1.90;;
4616;SDS011;2321;42.704;23.384;2022-07-29T07:15:36;2.83;;;2.63;;
4616;SDS011;2321;42.704;23.384;2022-07-29T07:18:05;3.13;;;2.93;;
4616;SDS011;2321;42.704;23.384;2022-07-29T07:20:33;3.13;;;2.97;;
4616;SDS011;2321;42.704;23.384;2022-07-29T07:23:00;2.50;;;2.40;;
4616;SDS011;2321;42.704;23.384;2022-07-29T07:25:27;2.73;;;2.53;;
4616;SDS011;2321;42.704;23.384;2022-07-29T07:27:55;2.53;;;2.40;;
4616;SDS011;2321;42.704;23.384;2022-07-29T07:30:21;10.17;;;2.80;;
4616;SDS011;2321;42.704;23.384;2022-07-29T07:32:48;2.67;;;2.47;;
4616;SDS011;2321;42.704;23.384;2022-07-29T07:35:17;2.43;;;2.33;;
4616;SDS011;2321;42.704;23.384;2022-07-29T07:37:44;3.17;;;2.87;;
4616;SDS011;2321;42.704;23.384;2022-07-29T07:40:11;3.33;;;3.13;;
4616;SDS011;2321;42.704;23.384;2022-07-29T07:42:39;3.10;;;2.60;;
4616;SDS011;2321;42.704;23.384;2022-07-29T07:45:06;2.63;;;2.47;;
4616;SDS011;2321;42.704;23.384;2022-07-29T07:47:35;3.20;;;3.00;;
4616;SDS011;2321;42.704;23.384;2022-07-29T07:50:03;3.70;;;2.57;;
4616;SDS011;2321;42.704;23.384;2022-07-29T07:52:32;2.63;;;2.53;;
4616;SDS011;2321;42.704;23.384;2022-07-29T07:54:59;10.57;;;2.40;;
4616;SDS011;2321;42.704;23.384;2022-07-29T07:57:26;2.43;;;2.23;;
4616;SDS011;2321;42.704;23.384;2022-07-29T07:59:53;4.50;;;2.33;;
4616;SDS011;2321;42.704;23.384;2022-07-29T08:02:20;4.40;;;2.20;;
4616;SDS011;2321;42.704;23.384;2022-07-29T08:04:47;2.27;;;2.17;;
4616;SDS011;2321;42.704;23.384;2022-07-29T08:07:14;3.93;;;2.70;;
4616;SDS011;2321;42.704;23.384;2022-07-29T08:09:43;2.70;;;2.60;;
4616;SDS011;2321;42.704;23.384;2022-07-29T08:12:10;2.10;;;2.00;;
4616;SDS011;2321;42.704;23.384;2022-07-29T08:14:37;2.50;;;2.30;;
4616;SDS011;2321;42.704;23.384;2022-07-29T08:17:04;2.10;;;2.00;;
4616;SDS011;2321;42.704;23.384;2022-07-29T08:19:31;1.90;;;1.80;;
4616;SDS011;2321;42.704;23.384;2022-07-29T08:21:58;4.77;;;1.80;;
4616;SDS011;2321;42.704;23.384;2022-07-29T08:24:25;4.03;;;2.20;;
4616;SDS011;2321;42.704;23.384;2022-07-29T08:27:19;5.80;;;2.80;;
4616;SDS011;2321;42.704;23.384;2022-07-29T08:29:46;2.17;;;2.10;;
4616;SDS011;2321;42.704;23.384;2022-07-29T08:32:13;2.57;;;2.47;;
4616;SDS011;2321;42.704;23.384;2022-07-29T08:34:40;2.33;;;2.23;;
4616;SDS011;2321;42.704;23.384;2022-07-29T08:37:07;4.40;;;2.30;;
4616;SDS011;2321;42.704;23.384;2022-07-29T08:39:34;2.40;;;2.30;;
4616;SDS011;2321;42.704;23.384;2022-07-29T08:42:01;3.23;;;2.93;;
4616;SDS011;2321;42.704;23.384;2022-07-29T08:44:30;2.80;;;2.60;;
4616;SDS011;2321;42.704;23.384;2022-07-29T08:46:59;3.17;;;2.27;;
4616;SDS011;2321;42.704;23.384;2022-07-29T08:49:26;2.43;;;2.30;;
4616;SDS011;2321;42.704;23.384;2022-07-29T08:51:53;2.50;;;2.40;;
4616;SDS011;2321;42.704;23.384;2022-07-29T08:54:21;2.00;;;1.97;;
4616;SDS011;2321;42.704;23.384;2022-07-29T08:56:50;1.90;;;1.90;;
4616;SDS011;2321;42.704;23.384;2022-07-29T08:59:17;3.17;;;2.40;;
4616;SDS011;2321;42.704;23.384;2022-07-29T09:01:48;2.90;;;2.80;;
4616;SDS011;2321;42.704;23.384;2022-07-29T09:04:19;2.07;;;2.00;;
4616;SDS011;2321;42.704;23.384;2022-07-29T09:06:48;2.10;;;2.10;;
4616;SDS011;2321;42.704;23.384;2022-07-29T09:09:18;2.70;;;2.50;;
4616;SDS011;2321;42.704;23.384;2022-07-29T09:11:45;2.33;;;2.17;;
4616;SDS011;2321;42.704;23.384;2022-07-29T09:14:12;1.90;;;1.80;;
4616;SDS011;2321;42.704;23.384;2022-07-29T09:16:43;1.73;;;1.70;;
4616;SDS011;2321;42.704;23.384;2022-07-29T09:19:20;2.13;;;2.03;;
4616;SDS011;2321;42.704;23.384;2022-07-29T09:21:49;3.23;;;2.10;;
4616;SDS011;2321;42.704;23.384;2022-07-29T09:24:38;2.30;;;2.20;;
4616;SDS011;2321;42.704;23.384;2022-07-29T09:27:08;2.33;;;2.13;;
4616;SDS011;2321;42.704;23.384;2022-07-29T09:29:37;2.20;;;2.20;;
4616;SDS011;2321;42.704;23.384;2022-07-29T09:32:08;2.30;;;2.20;;
4616;SDS011;2321;42.704;23.384;2022-07-29T09:34:38;2.37;;;2.27;;
4616;SDS011;2321;42.704;23.384;2022-07-29T09:37:05;2.37;;;2.27;;
4616;SDS011;2321;42.704;23.384;2022-07-29T09:39:32;2.37;;;2.27;;
4616;SDS011;2321;42.704;23.384;2022-07-29T09:42:02;2.90;;;2.70;;
4616;SDS011;2321;42.704;23.384;2022-07-29T09:44:43;2.10;;;2.07;;
4616;SDS011;2321;42.704;23.384;2022-07-29T09:47:11;2.03;;;1.93;;
4616;SDS011;2321;42.704;23.384;2022-07-29T09:52:23;1.63;;;1.63;;
4616;SDS011;2321;42.704;23.384;2022-07-29T09:54:50;1.60;;;1.50;;
4616;SDS011;2321;42.704;23.384;2022-07-29T09:57:22;1.90;;;1.90;;
4616;SDS011;2321;42.704;23.384;2022-07-29T09:59:57;1.70;;;1.60;;
4616;SDS011;2321;42.704;23.384;2022-07-29T10:02:29;2.03;;;1.93;;
4616;SDS011;2321;42.704;23.384;2022-07-29T10:04:59;2.10;;;2.00;;
4616;SDS011;2321;42.704;23.384;2022-07-29T10:07:29;2.10;;;2.00;;
4616;SDS011;2321;42.704;23.384;2022-07-29T10:10:10;2.20;;;2.00;;
4616;SDS011;2321;42.704;23.384;2022-07-29T10:12:47;1.93;;;1.83;;
4616;SDS011;2321;42.704;23.384;2022-07-29T10:15:15;1.60;;;1.60;;
4616;SDS011;2321;42.704;23.384;2022-07-29T10:17:43;3.23;;;2.03;;
4616;SDS011;2321;42.704;23.384;2022-07-29T10:20:11;2.03;;;1.93;;
4616;SDS011;2321;42.704;23.384;2022-07-29T10:22:39;1.50;;;1.50;;
4616;SDS011;2321;42.704;23.384;2022-07-29T10:25:09;1.73;;;1.63;;
4616;SDS011;2321;42.704;23.384;2022-07-29T10:27:36;3.07;;;2.33;;
4616;SDS011;2321;42.704;23.384;2022-07-29T10:30:04;1.70;;;1.60;;
4616;SDS011;2321;42.704;23.384;2022-07-29T10:32:35;1.90;;;1.80;;
4616;SDS011;2321;42.704;23.384;2022-07-29T10:35:21;2.20;;;2.10;;
4616;SDS011;2321;42.704;23.384;2022-07-29T10:38:27;1.90;;;1.80;;
4616;SDS011;2321;42.704;23.384;2022-07-29T10:41:11;1.80;;;1.70;;
4616;SDS011;2321;42.704;23.384;2022-07-29T10:43:55;1.97;;;1.83;;
4616;SDS011;2321;42.704;23.384;2022-07-29T10:46:25;1.90;;;1.80;;
4616;SDS011;2321;42.704;23.384;2022-07-29T10:49:06;3.90;;;2.30;;
4616;SDS011;2321;42.704;23.384;2022-07-29T10:51:55;2.23;;;2.03;;
4616;SDS011;2321;42.704;23.384;2022-07-29T10:54:43;1.83;;;1.73;;
4616;SDS011;2321;42.704;23.384;2022-07-29T10:57:16;4.93;;;2.33;;
4616;SDS011;2321;42.704;23.384;2022-07-29T10:59:49;1.60;;;1.60;;
4616;SDS011;2321;42.704;23.384;2022-07-29T11:05:11;2.00;;;2.00;;
4616;SDS011;2321;42.704;23.384;2022-07-29T11:07:40;3.37;;;1.87;;
4616;SDS011;2321;42.704;23.384;2022-07-29T11:10:48;2.50;;;2.30;;
4616;SDS011;2321;42.704;23.384;2022-07-29T11:16:15;4.03;;;2.60;;
4616;SDS011;2321;42.704;23.384;2022-07-29T11:21:50;2.40;;;2.23;;
4616;SDS011;2321;42.704;23.384;2022-07-29T11:24:20;2.73;;;2.53;;
4616;SDS011;2321;42.704;23.384;2022-07-29T11:29:39;2.80;;;2.60;;
4616;SDS011;2321;42.704;23.384;2022-07-29T11:32:14;3.50;;;1.93;;
4616;SDS011;2321;42.704;23.384;2022-07-29T11:34:44;1.93;;;1.83;;
4616;SDS011;2321;42.704;23.384;2022-07-29T11:37:18;2.20;;;2.20;;
4616;SDS011;2321;42.704;23.384;2022-07-29T11:40:10;3.83;;;2.30;;
4616;SDS011;2321;42.704;23.384;2022-07-29T11:42:40;2.77;;;2.57;;
4616;SDS011;2321;42.704;23.384;2022-07-29T11:45:10;2.00;;;2.00;;
4616;SDS011;2321;42.704;23.384;2022-07-29T11:47:40;2.17;;;2.07;;
4616;SDS011;2321;42.704;23.384;2022-07-29T11:50:15;2.37;;;2.27;;
4616;SDS011;2321;42.704;23.384;2022-07-29T11:52:46;1.93;;;1.83;;
4616;SDS011;2321;42.704;23.384;2022-07-29T11:55:16;3.20;;;2.50;;
4616;SDS011;2321;42.704;23.384;2022-07-29T11:57:47;2.70;;;2.50;;
4616;SDS011;2321;42.704;23.384;2022-07-29T12:00:26;2.20;;;2.10;;
4616;SDS011;2321;42.704;23.384;2022-07-29T12:02:55;2.87;;;2.40;;
4616;SDS011;2321;42.704;23.384;2022-07-29T12:05:30;2.27;;;2.17;;
4616;SDS011;2321;42.704;23.384;2022-07-29T12:08:04;2.40;;;2.30;;
4616;SDS011;2321;42.704;23.384;2022-07-29T12:10:42;2.53;;;2.40;;
4616;SDS011;2321;42.704;23.384;2022-07-29T12:13:11;2.20;;;2.10;;
4616;SDS011;2321;42.704;23.384;2022-07-29T12:15:39;1.80;;;1.80;;
4616;SDS011;2321;42.704;23.384;2022-07-29T12:18:09;2.37;;;2.23;;
4616;SDS011;2321;42.704;23.384;2022-07-29T12:20:37;2.90;;;2.70;;
4616;SDS011;2321;42.704;23.384;2022-07-29T12:23:05;2.43;;;2.33;;
4616;SDS011;2321;42.704;23.384;2022-07-29T12:25:34;4.27;;;3.07;;
4616;SDS011;2321;42.704;23.384;2022-07-29T12:28:04;2.27;;;2.17;;
4616;SDS011;2321;42.704;23.384;2022-07-29T12:30:34;2.80;;;2.60;;
4616;SDS011;2321;42.704;23.384;2022-07-29T12:33:10;2.53;;;2.43;;
4616;SDS011;2321;42.704;23.384;2022-07-29T12:35:41;2.70;;;2.50;;
4616;SDS011;2321;42.704;23.384;2022-07-29T12:38:11;2.40;;;2.30;;
4616;SDS011;2321;42.704;23.384;2022-07-29T12:40:39;2.50;;;2.40;;
4616;SDS011;2321;42.704;23.384;2022-07-29T12:43:09;3.03;;;2.83;;
4616;SDS011;2321;42.704;23.384;2022-07-29T12:45:38;3.03;;;2.80;;
4616;SDS011;2321;42.704;23.384;2022-07-29T12:48:06;2.60;;;2.50;;
4616;SDS011;2321;42.704;23.384;2022-07-29T12:50:34;2.40;;;2.30;;
4616;SDS011;2321;42.704;23.384;2022-07-29T12:53:08;1.80;;;1.80;;
4616;SDS011;2321;42.704;23.384;2022-07-29T12:55:43;2.20;;;2.17;;
4616;SDS011;2321;42.704;23.384;2022-07-29T12:58:24;3.33;;;3.13;;
4616;SDS011;2321;42.704;23.384;2022-07-29T13:01:03;3.07;;;2.73;;
4616;SDS011;2321;42.704;23.384;2022-07-29T13:03:42;2.63;;;2.43;;
4616;SDS011;2321;42.704;23.384;2022-07-29T13:06:30;1.90;;;1.90;;
4616;SDS011;2321;42.704;23.384;2022-07-29T13:08:59;2.07;;;1.83;;
4616;SDS011;2321;42.704;23.384;2022-07-29T13:11:27;3.00;;;2.80;;
4616;SDS011;2321;42.704;23.384;2022-07-29T13:13:56;3.27;;;2.70;;
4616;SDS011;2321;42.704;23.384;2022-07-29T13:16:23;2.40;;;2.30;;
4616;SDS011;2321;42.704;23.384;2022-07-29T13:19:02;3.57;;;3.00;;
4616;SDS011;2321;42.704;23.384;2022-07-29T13:21:37;2.70;;;2.53;;
4616;SDS011;2321;42.704;23.384;2022-07-29T13:24:06;2.90;;;2.70;;
4616;SDS011;2321;42.704;23.384;2022-07-29T13:26:34;2.43;;;2.33;;
4616;SDS011;2321;42.704;23.384;2022-07-29T13:29:07;2.47;;;2.47;;
4616;SDS011;2321;42.704;23.384;2022-07-29T13:31:34;4.50;;;2.83;;
4616;SDS011;2321;42.704;23.384;2022-07-29T13:34:02;2.50;;;2.40;;
4616;SDS011;2321;42.704;23.384;2022-07-29T13:36:29;3.47;;;3.17;;
4616;SDS011;2321;42.704;23.384;2022-07-29T13:38:56;2.73;;;2.60;;
4616;SDS011;2321;42.704;23.384;2022-07-29T13:41:23;2.60;;;2.40;;
4616;SDS011;2321;42.704;23.384;2022-07-29T13:43:50;2.50;;;2.40;;
4616;SDS011;2321;42.704;23.384;2022-07-29T13:46:18;2.67;;;2.47;;
4616;SDS011;2321;42.704;23.384;2022-07-29T13:48:45;2.50;;;2.40;;
4616;SDS011;2321;42.704;23.384;2022-07-29T13:51:12;2.30;;;2.10;;
4616;SDS011;2321;42.704;23.384;2022-07-29T13:53:40;2.70;;;2.60;;
4616;SDS011;2321;42.704;23.384;2022-07-29T13:56:07;2.13;;;2.07;;
4616;SDS011;2321;42.704;23.384;2022-07-29T13:58:34;3.03;;;2.87;;
4616;SDS011;2321;42.704;23.384;2022-07-29T14:01:02;2.80;;;2.60;;
4616;SDS011;2321;42.704;23.384;2022-07-29T14:03:30;3.07;;;2.90;;
4616;SDS011;2321;42.704;23.384;2022-07-29T14:05:57;2.70;;;2.50;;
4616;SDS011;2321;42.704;23.384;2022-07-29T14:08:25;2.87;;;2.70;;
4616;SDS011;2321;42.704;23.384;2022-07-29T14:10:52;3.27;;;3.00;;
4616;SDS011;2321;42.704;23.384;2022-07-29T14:13:19;3.00;;;2.90;;
4616;SDS011;2321;42.704;23.384;2022-07-29T14:15:46;2.97;;;2.87;;
4616;SDS011;2321;42.704;23.384;2022-07-29T14:18:13;2.67;;;2.50;;
4616;SDS011;2321;42.704;23.384;2022-07-29T14:20:41;3.27;;;3.07;;
4616;SDS011;2321;42.704;23.384;2022-07-29T14:23:08;2.27;;;2.17;;
4616;SDS011;2321;42.704;23.384;2022-07-29T14:25:36;2.90;;;2.70;;
4616;SDS011;2321;42.704;23.384;2022-07-29T14:28:03;2.70;;;2.50;;
4616;SDS011;2321;42.704;23.384;2022-07-29T14:30:30;3.00;;;2.80;;
4616;SDS011;2321;42.704;23.384;2022-07-29T14:32:57;2.33;;;2.23;;
4616;SDS011;2321;42.704;23.384;2022-07-29T14:35:24;2.90;;;2.70;;
4616;SDS011;2321;42.704;23.384;2022-07-29T14:37:53;2.60;;;2.50;;
4616;SDS011;2321;42.704;23.384;2022-07-29T14:40:19;1.70;;;1.70;;
4616;SDS011;2321;42.704;23.384;2022-07-29T14:42:47;2.50;;;2.40;;
4616;SDS011;2321;42.704;23.384;2022-07-29T14:45:14;3.00;;;2.67;;
4616;SDS011;2321;42.704;23.384;2022-07-29T14:47:41;2.83;;;2.63;;
4616;SDS011;2321;42.704;23.384;2022-07-29T14:50:08;2.60;;;2.50;;
4616;SDS011;2321;42.704;23.384;2022-07-29T14:52:36;3.20;;;3.00;;
4616;SDS011;2321;42.704;23.384;2022-07-29T14:55:05;2.87;;;2.73;;
4616;SDS011;2321;42.704;23.384;2022-07-29T14:57:33;3.27;;;3.07;;
4616;SDS011;2321;42.704;23.384;2022-07-29T15:00:00;2.50;;;2.40;;
4616;SDS011;2321;42.704;23.384;2022-07-29T15:02:28;2.80;;;2.60;;
4616;SDS011;2321;42.704;23.384;2022-07-29T15:04:54;3.30;;;3.00;;
4616;SDS011;2321;42.704;23.384;2022-07-29T15:07:22;2.57;;;2.47;;
4616;SDS011;2321;42.704;23.384;2022-07-29T15:09:49;3.33;;;3.13;;
4616;SDS011;2321;42.704;23.384;2022-07-29T15:12:17;3.20;;;2.90;;
4616;SDS011;2321;42.704;23.384;2022-07-29T15:14:44;2.80;;;2.60;;
4616;SDS011;2321;42.704;23.384;2022-07-29T15:17:11;3.07;;;2.90;;
4616;SDS011;2321;42.704;23.384;2022-07-29T15:19:38;2.83;;;2.73;;
4616;SDS011;2321;42.704;23.384;2022-07-29T15:22:05;2.60;;;2.40;;
4616;SDS011;2321;42.704;23.384;2022-07-29T15:24:32;2.20;;;2.10;;
4616;SDS011;2321;42.704;23.384;2022-07-29T15:26:59;3.17;;;2.97;;
4616;SDS011;2321;42.704;23.384;2022-07-29T15:29:27;3.30;;;3.00;;